createdAt,value
2023-02-19T00:00:04.458Z,21.78
2023-02-19T00:02:33.063Z,21.77
2023-02-19T00:05:01.504Z,21.76
2023-02-19T00:07:30.951Z,21.75
2023-02-19T00:09:59.332Z,21.75
2023-02-19T00:12:28.218Z,21.74
2023-02-19T00:14:57.826Z,21.73
2023-02-19T00:17:26.207Z,21.71
2023-02-19T00:19:54.627Z,21.69
2023-02-19T00:22:23.168Z,21.68
2023-02-19T00:24:51.547Z,21.68
2023-02-19T00:27:19.965Z,21.68
2023-02-19T00:29:48.525Z,21.68
2023-02-19T00:32:16.933Z,21.66
2023-02-19T00:34:45.576Z,21.66
2023-02-19T00:37:13.854Z,21.65
2023-02-19T00:39:42.239Z,21.72
2023-02-19T00:42:10.656Z,21.83
2023-02-19T00:44:39.093Z,21.99
2023-02-19T00:47:07.577Z,22.11
2023-02-19T00:49:36.063Z,22.24
2023-02-19T00:52:04.923Z,22.36
2023-02-19T00:54:33.226Z,22.48
2023-02-19T00:57:01.608Z,22.58
2023-02-19T00:59:29.987Z,22.67
2023-02-19T01:01:58.555Z,22.73
2023-02-19T01:04:27.290Z,22.79
2023-02-19T01:06:55.643Z,22.83
2023-02-19T01:09:24.223Z,22.87
2023-02-19T01:11:52.618Z,22.89
2023-02-19T01:14:21.016Z,22.90
2023-02-19T01:16:49.556Z,22.92
2023-02-19T01:19:18.042Z,22.94
2023-02-19T01:21:46.470Z,22.94
2023-02-19T01:24:16.031Z,22.95
2023-02-19T01:26:44.508Z,22.95
2023-02-19T01:29:12.926Z,22.95
2023-02-19T01:31:42.658Z,22.95
2023-02-19T01:34:13.329Z,22.95
2023-02-19T01:36:41.813Z,22.95
2023-02-19T01:39:10.913Z,22.93
2023-02-19T01:41:41.242Z,22.92
2023-02-19T01:44:29.789Z,22.92
2023-02-19T01:46:59.091Z,23.05
2023-02-19T01:49:51.638Z,22.99
2023-02-19T01:52:31.114Z,22.99
2023-02-19T01:55:02.122Z,22.96
2023-02-19T01:57:35.527Z,22.92
2023-02-19T02:00:09.192Z,22.89
2023-02-19T02:02:37.701Z,22.87
2023-02-19T02:05:10.779Z,22.81
2023-02-19T02:07:57.806Z,22.78
2023-02-19T02:10:26.394Z,22.74
2023-02-19T02:12:58.008Z,22.67
2023-02-19T02:15:35.105Z,22.66
2023-02-19T02:18:14.781Z,22.69
2023-02-19T02:20:59.948Z,22.68
2023-02-19T02:23:37.137Z,22.67
2023-02-19T02:26:23.233Z,22.60
2023-02-19T02:29:16.492Z,22.57
2023-02-19T02:32:08.379Z,22.52
2023-02-19T02:34:47.463Z,22.66
2023-02-19T02:37:16.350Z,22.63
2023-02-19T02:39:46.474Z,22.52
2023-02-19T02:42:30.430Z,22.46
2023-02-19T02:45:17.634Z,22.41
2023-02-19T02:47:53.603Z,22.36
2023-02-19T02:50:25.965Z,22.33
2023-02-19T02:53:18.830Z,22.30
2023-02-19T02:55:50.343Z,22.33
2023-02-19T02:58:19.464Z,22.27
2023-02-19T03:01:13.952Z,22.24
2023-02-19T03:03:44.383Z,22.30
2023-02-19T03:06:16.355Z,22.22
2023-02-19T03:08:49.456Z,22.20
2023-02-19T03:11:36.761Z,22.18
2023-02-19T03:14:37.806Z,22.14
2023-02-19T03:17:35.065Z,22.14
2023-02-19T03:20:09.178Z,22.17
2023-02-19T03:22:38.897Z,22.14
2023-02-19T03:25:41.258Z,22.11
2023-02-19T03:28:11.786Z,22.18
2023-02-19T03:30:46.002Z,22.08
2023-02-19T03:33:20.623Z,22.05
2023-02-19T03:36:08.813Z,22.01
2023-02-19T03:38:45.194Z,22.10
2023-02-19T03:41:25.142Z,22.05
2023-02-19T03:44:03.409Z,22.06
2023-02-19T03:47:03.959Z,22.06
2023-02-19T03:50:03.035Z,22.19
2023-02-19T03:52:39.884Z,22.04
2023-02-19T03:55:13.421Z,21.94
2023-02-19T03:58:20.194Z,21.90
2023-02-19T04:00:55.985Z,22.04
2023-02-19T04:03:29.248Z,21.95
2023-02-19T04:06:05.015Z,21.90
2023-02-19T04:08:35.527Z,21.90
2023-02-19T04:11:04.930Z,21.85
2023-02-19T04:13:46.028Z,21.82
2023-02-19T04:16:21.000Z,21.84
2023-02-19T04:18:53.104Z,21.84
2023-02-19T04:21:23.130Z,21.84
2023-02-19T04:23:51.854Z,21.92
2023-02-19T04:26:22.076Z,22.01
2023-02-19T04:28:50.309Z,22.15
2023-02-19T04:31:18.801Z,22.27
2023-02-19T04:33:47.480Z,22.39
2023-02-19T04:36:15.871Z,22.50
2023-02-19T04:38:44.237Z,22.60
2023-02-19T04:41:13.191Z,22.67
2023-02-19T04:43:41.705Z,22.76
2023-02-19T04:46:10.335Z,22.82
2023-02-19T04:48:38.978Z,22.87
2023-02-19T04:51:08.126Z,22.91
2023-02-19T04:53:37.682Z,22.94
2023-02-19T04:56:07.994Z,22.97
2023-02-19T04:58:36.382Z,23.00
2023-02-19T05:01:05.480Z,23.00
2023-02-19T05:03:35.548Z,23.02
2023-02-19T05:06:09.321Z,23.03
2023-02-19T05:08:38.194Z,23.03
2023-02-19T05:11:08.870Z,23.03
2023-02-19T05:13:37.854Z,23.03
2023-02-19T05:16:08.865Z,23.03
2023-02-19T05:18:37.145Z,23.02
2023-02-19T05:21:06.116Z,23.02
2023-02-19T05:23:34.433Z,22.99
2023-02-19T05:26:10.810Z,22.97
2023-02-19T05:28:39.266Z,22.98
2023-02-19T05:31:09.205Z,22.95
2023-02-19T05:33:38.682Z,22.92
2023-02-19T05:36:10.477Z,22.90
2023-02-19T05:38:39.445Z,22.89
2023-02-19T05:41:18.781Z,22.87
2023-02-19T05:43:48.387Z,22.87
2023-02-19T05:46:20.216Z,22.84
2023-02-19T05:48:49.546Z,22.83
2023-02-19T05:51:20.298Z,22.80
2023-02-19T05:53:49.371Z,22.79
2023-02-19T05:56:26.769Z,22.77
2023-02-19T05:58:55.901Z,22.74
2023-02-19T06:01:27.286Z,22.72
2023-02-19T06:03:57.466Z,22.73
2023-02-19T06:06:27.158Z,22.72
2023-02-19T06:08:55.416Z,22.70
2023-02-19T06:11:24.834Z,22.68
2023-02-19T06:13:53.200Z,22.68
2023-02-19T06:16:22.350Z,22.66
2023-02-19T06:18:51.099Z,22.65
2023-02-19T06:21:19.886Z,22.65
2023-02-19T06:23:48.359Z,22.64
2023-02-19T06:26:22.710Z,22.62
2023-02-19T06:28:52.913Z,22.62
2023-02-19T06:31:22.719Z,22.62
2023-02-19T06:33:51.514Z,22.61
2023-02-19T06:36:21.214Z,22.60
2023-02-19T06:38:49.702Z,22.59
2023-02-19T06:41:18.605Z,22.57
2023-02-19T06:43:47.179Z,22.57
2023-02-19T06:46:15.593Z,22.55
2023-02-19T06:48:45.248Z,22.54
2023-02-19T06:51:15.466Z,22.53
2023-02-19T06:53:43.763Z,22.53
2023-02-19T06:56:25.446Z,22.53
2023-02-19T06:58:55.602Z,22.55
2023-02-19T07:01:24.488Z,22.53
2023-02-19T07:03:53.372Z,22.52
2023-02-19T07:06:23.276Z,22.52
2023-02-19T07:08:52.163Z,22.51
2023-02-19T07:11:20.578Z,22.51
2023-02-19T07:13:49.118Z,22.51
2023-02-19T07:16:18.449Z,22.51
2023-02-19T07:18:46.908Z,22.51
2023-02-19T07:21:16.822Z,22.51
2023-02-19T07:23:45.923Z,22.53
2023-02-19T07:26:16.569Z,22.55
2023-02-19T07:28:45.739Z,22.56
2023-02-19T07:31:15.432Z,22.56
2023-02-19T07:33:45.277Z,22.56
2023-02-19T07:36:14.771Z,22.58
2023-02-19T07:38:43.049Z,22.59
2023-02-19T07:41:12.286Z,22.60
2023-02-19T07:43:41.071Z,22.59
2023-02-19T07:46:12.439Z,22.60
2023-02-19T07:48:42.933Z,22.61
2023-02-19T07:51:15.220Z,22.62
2023-02-19T07:53:43.568Z,22.64
2023-02-19T07:56:13.497Z,22.64
2023-02-19T07:58:42.392Z,22.62
2023-02-19T08:01:42.543Z,22.64
2023-02-19T08:04:13.032Z,22.92
2023-02-19T08:06:42.237Z,22.83
2023-02-19T08:09:10.811Z,22.76
2023-02-19T08:11:57.631Z,22.72
2023-02-19T08:14:27.340Z,22.71
2023-02-19T08:16:56.172Z,22.69
2023-02-19T08:19:24.819Z,22.68
2023-02-19T08:21:53.906Z,22.70
2023-02-19T08:24:22.403Z,22.71
2023-02-19T08:26:50.867Z,22.70
2023-02-19T08:29:19.349Z,22.68
2023-02-19T08:31:48.025Z,22.67
2023-02-19T08:34:16.622Z,22.66
2023-02-19T08:36:45.104Z,22.66
2023-02-19T08:39:13.591Z,22.65
2023-02-19T08:41:42.107Z,22.65
2023-02-19T08:44:10.861Z,22.65
2023-02-19T08:46:39.129Z,22.65
2023-02-19T08:49:07.538Z,22.65
2023-02-19T08:51:35.990Z,22.66
2023-02-19T08:54:04.989Z,22.66
2023-02-19T08:56:33.606Z,22.65
2023-02-19T08:59:02.155Z,22.64
2023-02-19T09:01:30.644Z,22.63
2023-02-19T09:03:59.439Z,22.61
2023-02-19T09:06:28.008Z,22.60
2023-02-19T09:08:56.386Z,22.60
2023-02-19T09:11:24.776Z,22.58
2023-02-19T09:13:56.546Z,22.56
2023-02-19T09:16:24.917Z,22.57
2023-02-19T09:18:53.276Z,22.56
2023-02-19T09:21:21.785Z,22.54
2023-02-19T09:23:50.661Z,22.53
2023-02-19T09:26:19.141Z,22.54
2023-02-19T09:28:47.933Z,22.54
2023-02-19T09:31:16.867Z,22.54
2023-02-19T09:33:46.969Z,22.54
2023-02-19T09:36:16.654Z,22.53
2023-02-19T09:38:45.452Z,22.53
2023-02-19T09:41:45.597Z,22.52
2023-02-19T09:44:18.564Z,22.75
2023-02-19T09:46:49.293Z,22.68
2023-02-19T09:49:26.075Z,22.62
2023-02-19T09:52:08.475Z,22.60
2023-02-19T09:54:38.084Z,22.65
2023-02-19T09:57:15.023Z,22.60
2023-02-19T09:59:53.873Z,22.60
2023-02-19T10:02:24.525Z,22.57
2023-02-19T10:04:53.899Z,22.52
2023-02-19T10:07:25.366Z,22.47
2023-02-19T10:10:13.819Z,22.45
2023-02-19T10:12:54.360Z,22.51
2023-02-19T10:15:39.347Z,22.54
2023-02-19T10:18:10.192Z,22.49
2023-02-19T10:20:40.522Z,22.44
2023-02-19T10:23:11.870Z,22.41
2023-02-19T10:25:45.692Z,22.40
2023-02-19T10:28:18.555Z,22.40
2023-02-19T10:30:53.602Z,22.40
2023-02-19T10:33:23.114Z,22.41
2023-02-19T10:36:00.378Z,22.37
2023-02-19T10:38:32.144Z,22.33
2023-02-19T10:41:06.286Z,22.31
2023-02-19T10:43:42.666Z,22.29
2023-02-19T10:46:29.884Z,22.30
2023-02-19T10:49:06.966Z,22.32
2023-02-19T10:51:37.760Z,22.31
2023-02-19T10:54:07.786Z,22.29
2023-02-19T10:56:38.817Z,22.27
2023-02-19T10:59:19.088Z,22.25
2023-02-19T11:02:01.853Z,22.24
2023-02-19T11:04:35.770Z,22.24
2023-02-19T11:07:17.733Z,22.21
2023-02-19T11:09:49.666Z,22.22
2023-02-19T11:12:26.527Z,22.21
2023-02-19T11:14:55.137Z,22.24
2023-02-19T11:17:31.084Z,22.21
2023-02-19T11:20:16.081Z,22.18
2023-02-19T11:22:47.263Z,22.28
2023-02-19T11:25:15.584Z,22.24
2023-02-19T11:28:25.737Z,22.18
2023-02-19T11:30:54.153Z,22.35
2023-02-19T11:33:27.579Z,22.23
2023-02-19T11:36:22.329Z,22.19
2023-02-19T11:38:50.791Z,22.23
2023-02-19T11:41:21.950Z,22.16
2023-02-19T11:43:59.543Z,22.11
2023-02-19T11:46:41.757Z,22.07
2023-02-19T11:49:52.208Z,22.13
2023-02-19T11:52:38.715Z,22.23
2023-02-19T11:55:41.288Z,22.14
2023-02-19T11:58:25.033Z,22.10
2023-02-19T12:01:47.308Z,22.05
2023-02-19T12:04:36.806Z,22.29
2023-02-19T12:07:25.160Z,22.27
2023-02-19T12:10:03.004Z,22.17
2023-02-19T12:13:11.525Z,22.08
2023-02-19T12:15:58.129Z,22.09
2023-02-19T12:18:35.668Z,22.03
2023-02-19T12:21:22.424Z,21.99
2023-02-19T12:23:56.847Z,21.99
2023-02-19T12:26:48.166Z,21.94
2023-02-19T12:29:56.800Z,22.02
2023-02-19T12:32:40.934Z,22.27
2023-02-19T12:35:43.928Z,22.20
2023-02-19T12:38:28.071Z,22.29
2023-02-19T12:41:50.621Z,22.24
2023-02-19T12:44:28.962Z,22.28
2023-02-19T12:47:01.754Z,22.20
2023-02-19T12:49:54.986Z,22.13
2023-02-19T12:52:27.771Z,22.23
2023-02-19T12:55:14.064Z,22.15
2023-02-19T12:57:42.548Z,22.21
2023-02-19T13:00:36.366Z,22.11
2023-02-19T13:03:21.803Z,22.21
2023-02-19T13:05:51.307Z,22.16
2023-02-19T13:08:42.054Z,22.05
2023-02-19T13:11:21.692Z,22.10
2023-02-19T13:14:06.835Z,22.06
2023-02-19T13:16:38.943Z,22.06
2023-02-19T13:19:07.481Z,22.02
2023-02-19T13:21:55.932Z,21.97
2023-02-19T13:24:28.515Z,21.96
2023-02-19T13:27:28.853Z,21.93
2023-02-19T13:30:30.656Z,21.94
2023-02-19T13:33:36.665Z,22.11
2023-02-19T13:36:26.543Z,22.02
2023-02-19T13:38:57.658Z,21.96
2023-02-19T13:41:28.981Z,21.92
2023-02-19T13:44:01.825Z,21.89
2023-02-19T13:46:43.305Z,21.88
2023-02-19T13:49:25.800Z,21.90
2023-02-19T13:51:56.451Z,21.89
2023-02-19T13:54:33.639Z,21.87
2023-02-19T13:57:28.948Z,21.87
2023-02-19T13:59:58.771Z,22.02
2023-02-19T14:02:31.313Z,21.95
2023-02-19T14:05:08.024Z,21.91
2023-02-19T14:07:52.501Z,21.89
2023-02-19T14:10:46.446Z,21.89
2023-02-19T14:13:49.951Z,22.03
2023-02-19T14:16:38.191Z,22.16
2023-02-19T14:19:44.663Z,22.03
2023-02-19T14:22:50.222Z,21.96
2023-02-19T14:25:30.598Z,21.89
2023-02-19T14:28:09.298Z,21.85
2023-02-19T14:30:51.461Z,21.84
2023-02-19T14:33:29.197Z,21.82
2023-02-19T14:36:06.286Z,21.81
2023-02-19T14:38:38.368Z,21.83
2023-02-19T14:41:07.657Z,21.82
2023-02-19T14:43:37.044Z,21.79
2023-02-19T14:46:18.674Z,21.79
2023-02-19T14:48:49.081Z,21.82
2023-02-19T14:51:41.200Z,21.80
2023-02-19T14:54:51.375Z,21.92
2023-02-19T14:57:29.602Z,22.05
2023-02-19T15:00:00.328Z,21.95
2023-02-19T15:02:31.052Z,21.88
2023-02-19T15:04:59.784Z,21.83
2023-02-19T15:07:30.877Z,21.78
2023-02-19T15:10:04.891Z,21.76
2023-02-19T15:12:39.796Z,21.79
2023-02-19T15:15:08.976Z,21.80
2023-02-19T15:17:41.185Z,21.77
2023-02-19T15:20:12.869Z,21.77
2023-02-19T15:22:41.929Z,21.77
2023-02-19T15:25:19.936Z,21.75
2023-02-19T15:27:48.871Z,21.80
2023-02-19T15:30:23.644Z,21.79
2023-02-19T15:32:57.526Z,21.80
2023-02-19T15:35:27.876Z,21.79
2023-02-19T15:37:56.586Z,21.76
2023-02-19T15:40:29.782Z,21.73
2023-02-19T15:42:59.810Z,21.73
2023-02-19T15:45:47.445Z,21.71
2023-02-19T15:48:19.376Z,21.83
2023-02-19T15:50:52.892Z,21.80
2023-02-19T15:53:29.874Z,21.77
2023-02-19T15:56:02.663Z,21.76
2023-02-19T15:58:35.537Z,21.74
2023-02-19T16:01:06.376Z,21.74
2023-02-19T16:03:35.877Z,21.73
2023-02-19T16:06:15.120Z,21.71
2023-02-19T16:08:45.464Z,21.74
2023-02-19T16:11:53.485Z,21.70
2023-02-19T16:14:38.021Z,21.89
2023-02-19T16:17:13.451Z,21.78
2023-02-19T16:19:53.915Z,21.70
2023-02-19T16:22:25.373Z,21.67
2023-02-19T16:24:59.276Z,21.65
2023-02-19T16:27:33.693Z,21.67
2023-02-19T16:30:26.037Z,21.66
2023-02-19T16:33:42.956Z,21.83
2023-02-19T16:36:29.072Z,22.07
2023-02-19T16:39:03.567Z,21.91
2023-02-19T16:41:32.052Z,21.79
2023-02-19T16:44:06.893Z,21.73
2023-02-19T16:46:35.263Z,21.70
2023-02-19T16:49:03.649Z,21.67
2023-02-19T16:51:32.119Z,21.64
2023-02-19T16:54:00.602Z,21.62
2023-02-19T16:56:29.186Z,21.62
2023-02-19T16:58:58.287Z,21.60
2023-02-19T17:01:27.371Z,21.59
2023-02-19T17:04:03.938Z,21.59
2023-02-19T17:06:37.935Z,21.63
2023-02-19T17:09:07.270Z,21.65
2023-02-19T17:11:36.845Z,21.63
2023-02-19T17:14:05.251Z,21.61
2023-02-19T17:16:40.690Z,21.58
2023-02-19T17:19:18.332Z,21.58
2023-02-19T17:21:47.403Z,21.58
2023-02-19T17:24:16.180Z,21.57
2023-02-19T17:26:44.788Z,21.57
2023-02-19T17:29:15.497Z,21.56
2023-02-19T17:31:44.759Z,21.56
2023-02-19T17:34:13.280Z,21.56
2023-02-19T17:36:43.515Z,21.58
2023-02-19T17:39:18.136Z,21.66
2023-02-19T17:41:46.501Z,21.84
2023-02-19T17:44:14.983Z,21.98
2023-02-19T17:46:43.582Z,22.12
2023-02-19T17:49:13.380Z,22.26
2023-02-19T17:51:42.509Z,22.40
2023-02-19T17:54:11.199Z,22.50
2023-02-19T17:56:43.644Z,22.61
2023-02-19T17:59:12.533Z,22.71
2023-02-19T18:01:41.042Z,22.78
2023-02-19T18:04:09.628Z,22.82
2023-02-19T18:06:38.384Z,22.86
2023-02-19T18:09:06.771Z,22.89
2023-02-19T18:11:37.025Z,22.92
2023-02-19T18:14:05.879Z,22.94
2023-02-19T18:16:34.412Z,22.96
2023-02-19T18:19:03.062Z,22.96
2023-02-19T18:21:31.630Z,22.96
2023-02-19T18:24:00.629Z,22.96
2023-02-19T18:26:29.209Z,22.96
2023-02-19T18:28:58.625Z,22.96
2023-02-19T18:31:27.183Z,22.97
2023-02-19T18:33:55.789Z,22.96
2023-02-19T18:36:24.366Z,22.97
2023-02-19T18:38:52.860Z,22.96
2023-02-19T18:41:21.688Z,22.94
2023-02-19T18:43:50.528Z,22.93
2023-02-19T18:46:21.516Z,22.91
2023-02-19T18:48:49.954Z,22.93
2023-02-19T18:51:18.954Z,22.90
2023-02-19T18:53:47.422Z,22.87
2023-02-19T18:56:16.519Z,22.85
2023-02-19T18:58:44.799Z,22.83
2023-02-19T19:01:14.336Z,22.82
2023-02-19T19:03:43.100Z,22.80
2023-02-19T19:06:11.679Z,22.79
2023-02-19T19:08:40.188Z,22.75
2023-02-19T19:11:09.562Z,22.73
2023-02-19T19:13:38.049Z,22.71
2023-02-19T19:16:07.033Z,22.69
2023-02-19T19:18:38.601Z,22.66
2023-02-19T19:21:09.962Z,22.66
2023-02-19T19:23:38.339Z,22.65
2023-02-19T19:26:07.529Z,22.62
2023-02-19T19:28:35.903Z,22.61
2023-02-19T19:31:04.954Z,22.58
2023-02-19T19:33:33.492Z,22.55
2023-02-19T19:36:01.863Z,22.53
2023-02-19T19:38:30.343Z,22.50
2023-02-19T19:40:59.672Z,22.47
2023-02-19T19:43:32.219Z,22.46
2023-02-19T19:46:00.642Z,22.45
2023-02-19T19:48:29.591Z,22.43
2023-02-19T19:50:58.176Z,22.41
2023-02-19T19:53:26.653Z,22.39
2023-02-19T19:55:55.132Z,22.36
2023-02-19T19:58:25.158Z,22.33
2023-02-19T20:00:53.964Z,22.31
2023-02-19T20:03:22.534Z,22.31
2023-02-19T20:05:51.526Z,22.29
2023-02-19T20:08:20.414Z,22.28
2023-02-19T20:10:48.998Z,22.26
2023-02-19T20:13:19.012Z,22.25
2023-02-19T20:15:47.453Z,22.24
2023-02-19T20:18:16.180Z,22.22
2023-02-19T20:20:44.665Z,22.21
2023-02-19T20:23:13.142Z,22.18
2023-02-19T20:25:41.626Z,22.15
2023-02-19T20:28:10.209Z,22.13
2023-02-19T20:30:39.355Z,22.12
2023-02-19T20:33:07.992Z,22.11
2023-02-19T20:35:36.677Z,22.10
2023-02-19T20:38:05.059Z,22.09
2023-02-19T20:40:34.171Z,22.07
2023-02-19T20:43:03.452Z,22.06
2023-02-19T20:45:32.044Z,22.05
2023-02-19T20:48:01.237Z,22.03
2023-02-19T20:50:29.821Z,22.02
2023-02-19T20:52:58.248Z,22.01
2023-02-19T20:55:26.791Z,22.00
2023-02-19T20:57:55.266Z,21.98
2023-02-19T21:00:24.360Z,21.97
2023-02-19T21:02:53.002Z,21.97
2023-02-19T21:05:21.653Z,21.98
2023-02-19T21:07:50.230Z,21.96
2023-02-19T21:10:19.213Z,21.94
2023-02-19T21:12:48.513Z,21.92
2023-02-19T21:15:17.305Z,21.92
2023-02-19T21:17:46.906Z,21.92
2023-02-19T21:20:18.094Z,21.92
2023-02-19T21:22:46.438Z,21.94
2023-02-19T21:25:14.813Z,21.92
2023-02-19T21:27:43.296Z,21.90
2023-02-19T21:30:12.218Z,21.88
2023-02-19T21:32:40.576Z,21.87
2023-02-19T21:35:09.148Z,21.86
2023-02-19T21:37:37.730Z,21.85
2023-02-19T21:40:08.980Z,21.85
2023-02-19T21:42:37.458Z,21.85
2023-02-19T21:45:06.841Z,21.85
2023-02-19T21:47:35.551Z,21.84
2023-02-19T21:50:04.564Z,21.82
2023-02-19T21:52:33.025Z,21.81
2023-02-19T21:55:01.405Z,21.79
2023-02-19T21:57:29.809Z,21.78
2023-02-19T21:59:58.263Z,21.76
2023-02-19T22:02:26.746Z,21.76
2023-02-19T22:04:55.542Z,21.75
2023-02-19T22:07:24.321Z,21.74
2023-02-19T22:09:53.005Z,21.74
2023-02-19T22:12:21.492Z,21.75
2023-02-19T22:14:49.971Z,21.76
2023-02-19T22:17:19.151Z,21.74
2023-02-19T22:19:47.955Z,21.73
2023-02-19T22:22:16.442Z,21.72
2023-02-19T22:24:44.919Z,21.70
2023-02-19T22:27:13.404Z,21.70
2023-02-19T22:29:41.923Z,21.71
2023-02-19T22:32:10.675Z,21.68
2023-02-19T22:34:43.055Z,21.68
2023-02-19T22:37:11.524Z,21.69
2023-02-19T22:39:40.014Z,21.68
2023-02-19T22:42:08.488Z,21.67
2023-02-19T22:44:37.084Z,21.65
2023-02-19T22:47:05.765Z,21.64
2023-02-19T22:49:34.138Z,21.63
2023-02-19T22:52:08.332Z,21.64
2023-02-19T22:54:36.740Z,21.66
2023-02-19T22:57:05.560Z,21.65
2023-02-19T22:59:34.208Z,21.64
2023-02-19T23:02:02.697Z,21.63
2023-02-19T23:04:31.785Z,21.61
2023-02-19T23:07:00.274Z,21.61
2023-02-19T23:09:29.992Z,21.60
2023-02-19T23:12:06.623Z,21.60
2023-02-19T23:14:35.038Z,21.62
2023-02-19T23:17:03.939Z,21.61
2023-02-19T23:19:33.039Z,21.61
2023-02-19T23:22:02.071Z,21.61
2023-02-19T23:24:31.018Z,21.60
2023-02-19T23:27:00.827Z,21.60
2023-02-19T23:29:31.262Z,21.59
2023-02-19T23:32:00.670Z,21.59
2023-02-19T23:34:29.348Z,21.59
2023-02-19T23:36:59.874Z,21.57
2023-02-19T23:39:28.990Z,21.57
2023-02-19T23:41:58.491Z,21.59
2023-02-19T23:44:26.956Z,21.60
2023-02-19T23:46:55.239Z,21.59
2023-02-19T23:49:24.128Z,21.58
2023-02-19T23:51:52.714Z,21.66
2023-02-19T23:54:21.597Z,21.74
2023-02-19T23:56:49.902Z,21.89
2023-02-19T23:59:18.357Z,22.06
